Time;durP1;ratioP1;P1;durP2;ratioP2;P2;SDS_P1;SDS_P2;PMS_P1;PMS_P2;Temp;Humidity;BMP_temperature;BMP_pressure;BME280_temperature;BME280_humidity;BME280_pressure;Samples;Min_cycle;Max_cycle;Signal;HPM_P1;HPM_P2
2023/05/26 04:33:07;;;;;;;;;13.50;12.00;;;;;16.09;56.32;102122.00;5051525;28;45447;-72
2023/05/26 04:35:33;;;;;;;;;11.50;11.50;;;;;16.05;56.01;102112.28;5056407;28;45217;-73
2023/05/26 04:37:59;;;;;;;;;14.50;11.75;;;;;16.07;55.98;102115.81;5056121;28;46000;-71
2023/05/26 04:40:25;;;;;;;;;14.75;12.25;;;;;16.08;55.57;102122.94;5056605;28;45390;-72
2023/05/26 04:42:50;;;;;;;;;16.50;11.75;;;;;16.08;56.34;102119.34;5056315;28;45367;-72
2023/05/26 04:45:16;;;;;;;;;11.25;11.25;;;;;16.04;56.12;102113.22;5055840;28;45364;-72
2023/05/26 04:47:42;;;;;;;;;11.25;10.25;;;;;16.05;56.00;102117.69;5055940;28;45850;-73
2023/05/26 04:50:12;;;;;;;;;13.25;13.25;;;;;16.06;56.15;102129.41;5056561;28;45339;-72
2023/05/26 04:52:41;;;;;;;;;11.25;10.50;;;;;16.06;56.07;102132.09;5053122;28;45220;-73
2023/05/26 04:55:07;;;;;;;;;13.00;10.75;;;;;16.03;55.87;102129.53;5048790;28;45439;-72
2023/05/26 04:57:32;;;;;;;;;13.00;10.25;;;;;16.09;55.87;102143.63;5055760;28;46285;-72
2023/05/26 04:59:57;;;;;;;;;13.25;10.75;;;;;16.12;56.02;102145.34;5055483;28;54905;-72
2023/05/26 05:02:23;;;;;;;;;12.50;7.75;;;;;16.04;55.52;102124.06;5055976;28;45367;-73
2023/05/26 05:04:48;;;;;;;;;15.25;11.25;;;;;16.02;55.72;102122.34;5055557;28;50904;-72
2023/05/26 05:07:14;;;;;;;;;7.00;7.00;;;;;16.04;56.02;102121.34;5057141;28;45377;-74
2023/05/26 05:09:40;;;;;;;;;17.75;11.00;;;;;16.22;55.70;102146.66;5056565;28;45507;-75
2023/05/26 05:12:06;;;;;;;;;22.25;11.75;;;;;16.25;55.79;102149.19;5055215;28;45221;-72
2023/05/26 05:14:33;;;;;;;;;11.25;10.00;;;;;16.27;55.94;102147.31;5035568;28;45563;-75
2023/05/26 05:16:58;;;;;;;;;11.75;10.25;;;;;16.28;55.38;102146.38;5036359;28;45533;-80
2023/05/26 05:19:24;;;;;;;;;12.50;9.25;;;;;16.31;55.71;102154.34;5055697;28;45225;-76
2023/05/26 05:21:50;;;;;;;;;16.00;10.50;;;;;16.32;55.35;102153.41;5055966;28;45280;-78
2023/05/26 05:24:15;;;;;;;;;11.00;11.00;;;;;16.39;55.42;102154.88;5055593;28;45454;-77
2023/05/26 05:26:40;;;;;;;;;12.25;11.50;;;;;16.33;55.33;102148.88;5038395;28;47200;-80
2023/05/26 05:29:07;;;;;;;;;12.00;8.00;;;;;16.46;55.02;102163.56;5056519;28;45379;-77
2023/05/26 05:31:32;;;;;;;;;13.75;12.50;;;;;16.43;54.94;102166.41;5064984;28;45448;-79
2023/05/26 05:33:58;;;;;;;;;13.50;12.00;;;;;16.35;54.85;102142.41;5058673;28;46534;-79
2023/05/26 05:36:23;;;;;;;;;11.50;8.00;;;;;16.26;55.02;102124.78;5076640;28;45303;-81
2023/05/26 05:38:48;;;;;;;;;11.50;11.50;;;;;16.38;54.62;102141.41;5077337;28;45339;-77
2023/05/26 05:41:14;;;;;;;;;13.75;10.75;;;;;16.32;55.32;102137.16;5057556;28;45383;-79
2023/05/26 05:43:40;;;;;;;;;13.00;8.75;;;;;16.42;54.74;102148.41;5057430;28;46052;-74
2023/05/26 05:46:05;;;;;;;;;11.25;11.00;;;;;16.59;54.84;102178.25;5075888;28;46269;-79
2023/05/26 05:48:30;;;;;;;;;12.25;10.00;;;;;16.56;54.92;102165.75;5057171;28;45289;-79
2023/05/26 05:50:56;;;;;;;;;15.75;13.75;;;;;16.63;54.29;102167.25;5075736;28;45260;-77
2023/05/26 05:53:21;;;;;;;;;10.25;10.00;;;;;16.73;54.32;102177.63;5067930;27;45456;-76
2023/05/26 05:55:47;;;;;;;;;12.25;12.25;;;;;16.72;54.56;102179.47;5038030;28;45455;-76
2023/05/26 05:58:13;;;;;;;;;12.00;10.75;;;;;16.68;54.07;102174.25;5055023;28;45288;-70
2023/05/26 06:00:39;;;;;;;;;8.25;8.25;;;;;16.68;54.33;102167.00;5067049;28;45316;-76
2023/05/26 06:03:04;;;;;;;;;13.00;10.75;;;;;16.78;54.47;102179.16;5076174;28;45492;-77
2023/05/26 06:05:29;;;;;;;;;19.00;13.00;;;;;16.81;53.75;102187.13;5076296;28;46019;-76
2023/05/26 06:07:55;;;;;;;;;13.25;11.75;;;;;16.75;54.30;102173.91;5076299;28;46237;-76
2023/05/26 06:10:20;;;;;;;;;6.75;6.75;;;;;16.86;54.56;102189.59;5075715;28;45366;-75
2023/05/26 06:12:48;;;;;;;;;9.50;9.50;;;;;16.91;53.96;102183.03;5069707;28;45539;-78
2023/05/26 06:15:13;;;;;;;;;12.00;11.00;;;;;16.98;53.51;102183.59;5069274;28;46190;-74
2023/05/26 06:17:39;;;;;;;;;16.50;13.00;;;;;16.96;53.61;102178.25;5076061;28;45326;-76
2023/05/26 06:20:05;;;;;;;;;13.25;8.75;;;;;17.06;53.76;102183.22;5075176;28;45406;-76
2023/05/26 06:22:30;;;;;;;;;11.25;8.00;;;;;17.09;53.72;102185.78;5075597;28;45557;-72
2023/05/26 06:24:56;;;;;;;;;10.75;10.75;;;;;17.09;53.53;102183.94;5074890;28;46292;-75
2023/05/26 06:27:21;;;;;;;;;15.00;11.50;;;;;17.16;53.25;102189.94;5056784;28;45301;-74
2023/05/26 06:29:46;;;;;;;;;12.50;12.50;;;;;17.22;53.45;102195.03;5074036;27;45336;-77
2023/05/26 06:32:12;;;;;;;;;15.50;12.25;;;;;17.17;53.02;102179.03;5066532;28;45508;-76
2023/05/26 06:34:37;;;;;;;;;18.50;12.75;;;;;17.24;53.12;102191.31;5074998;27;45242;-76
2023/05/26 06:37:02;;;;;;;;;15.25;10.50;;;;;17.26;52.77;102192.09;5071795;27;48405;-75
2023/05/26 06:39:28;;;;;;;;;21.25;15.00;;;;;17.32;52.70;102197.22;5068870;27;45189;-77
2023/05/26 06:41:53;;;;;;;;;14.00;14.00;;;;;17.31;52.86;102191.84;5067259;27;49628;-76
2023/05/26 06:44:18;;;;;;;;;18.25;11.25;;;;;17.27;52.63;102192.97;5066484;28;45372;-78
2023/05/26 06:46:44;;;;;;;;;13.50;13.50;;;;;17.25;53.16;102186.75;5061479;28;45438;-76
2023/05/26 06:49:09;;;;;;;;;18.00;15.00;;;;;17.20;52.96;102178.84;5054719;28;45249;-78
2023/05/26 06:51:35;;;;;;;;;20.00;17.00;;;;;17.32;52.86;102191.78;5069428;27;45406;-76
2023/05/26 06:54:01;;;;;;;;;12.00;12.00;;;;;17.30;52.88;102171.13;5076315;27;46192;-75
2023/05/26 06:56:27;;;;;;;;;14.00;14.00;;;;;17.25;52.84;102163.25;5074476;28;45460;-77
2023/05/26 06:58:52;;;;;;;;;11.25;11.25;;;;;17.43;52.90;102185.81;5074391;28;45379;-77
2023/05/26 07:01:18;;;;;;;;;16.00;14.50;;;;;17.41;52.78;102174.16;5074371;28;45338;-76
2023/05/26 07:03:43;;;;;;;;;14.25;14.00;;;;;17.49;52.43;102182.78;5073973;28;45395;-77
2023/05/26 07:06:08;;;;;;;;;11.75;11.00;;;;;17.53;52.38;102189.78;5074350;28;45397;-75
2023/05/26 07:08:34;;;;;;;;;15.75;12.75;;;;;17.54;52.40;102182.53;5060646;28;45572;-76
2023/05/26 07:10:59;;;;;;;;;16.00;15.75;;;;;17.52;52.35;102179.03;5064489;28;45290;-75
2023/05/26 07:13:25;;;;;;;;;14.00;12.00;;;;;17.40;52.34;102156.16;5065661;28;45910;-76
2023/05/26 07:15:50;;;;;;;;;20.50;15.25;;;;;17.52;52.04;102179.94;5071438;28;45193;-77
2023/05/26 07:18:15;;;;;;;;;16.75;15.00;;;;;17.50;52.08;102176.41;5073528;28;45394;-75
2023/05/26 07:20:40;;;;;;;;;17.75;15.00;;;;;17.48;52.40;102181.03;5074321;28;45575;-77
2023/05/26 07:23:06;;;;;;;;;15.00;14.25;;;;;17.38;52.33;102160.75;5074018;28;53466;-75
2023/05/26 07:25:31;;;;;;;;;16.50;14.25;;;;;17.28;52.30;102138.66;5074052;28;45490;-76
2023/05/26 07:27:57;;;;;;;;;16.25;14.50;;;;;17.55;52.36;102177.03;5074090;28;45763;-75
2023/05/26 07:30:22;;;;;;;;;15.75;14.00;;;;;17.52;52.59;102168.19;5074135;28;45213;-76
2023/05/26 07:32:48;;;;;;;;;13.50;12.25;;;;;17.67;52.37;102190.00;5073463;28;45268;-76
2023/05/26 07:35:13;;;;;;;;;23.50;16.50;;;;;17.73;52.50;102180.66;5055890;28;45269;-76
2023/05/26 07:37:38;;;;;;;;;18.00;16.50;;;;;17.68;52.33;102155.63;5055557;28;45855;-76
2023/05/26 07:40:05;;;;;;;;;16.75;13.75;;;;;17.88;52.14;102177.13;5055258;28;45717;-75
2023/05/26 07:42:33;;;;;;;;;18.50;13.00;;;;;17.96;51.84;102177.56;5036087;28;47551;-76
2023/05/26 07:45:01;;;;;;;;;19.50;14.25;;;;;17.97;51.44;102176.63;5053552;28;45371;-75
2023/05/26 07:47:31;;;;;;;;;13.25;12.75;;;;;17.97;51.25;102173.91;5053243;28;45281;-75
2023/05/26 07:49:56;;;;;;;;;17.75;16.00;;;;;17.98;51.59;102174.78;5055794;28;45446;-75
2023/05/26 07:52:22;;;;;;;;;16.25;13.50;;;;;17.95;51.30;102174.97;5062311;27;46470;-76
2023/05/26 07:54:47;;;;;;;;;17.75;14.25;;;;;17.94;51.34;102170.50;5038981;28;45384;-76
2023/05/26 07:57:12;;;;;;;;;18.25;14.00;;;;;17.97;51.23;102168.47;5057699;28;45667;-77
2023/05/26 07:59:37;;;;;;;;;18.25;15.75;;;;;17.99;51.29;102157.53;5076463;28;50491;-75
2023/05/26 08:02:03;;;;;;;;;15.25;14.25;;;;;18.15;51.30;102178.34;5076557;28;46175;-77
2023/05/26 08:04:28;;;;;;;;;17.50;14.00;;;;;18.18;51.30;102171.00;5048487;28;45445;-76
2023/05/26 08:06:54;;;;;;;;;18.75;15.75;;;;;18.27;51.07;102176.81;5077245;28;45872;-75
2023/05/26 08:09:19;;;;;;;;;22.25;18.00;;;;;18.31;50.23;102170.22;5074931;28;45302;-77
2023/05/26 08:11:45;;;;;;;;;16.75;16.75;;;;;18.43;50.90;102172.25;5059393;28;45808;-77
2023/05/26 08:14:10;;;;;;;;;14.25;14.25;;;;;18.48;50.90;102182.84;5074367;28;45327;-77
2023/05/26 08:16:35;;;;;;;;;18.25;16.75;;;;;18.54;50.18;102174.38;5073148;28;45513;-75
2023/05/26 08:19:01;;;;;;;;;15.75;14.00;;;;;18.54;50.90;102164.38;5077001;28;45723;-76
2023/05/26 08:21:26;;;;;;;;;16.25;14.50;;;;;18.67;50.48;102175.47;5073818;28;46322;-77
2023/05/26 08:23:52;;;;;;;;;12.75;12.75;;;;;18.75;50.60;102178.63;5038520;28;45384;-77
2023/05/26 08:26:17;;;;;;;;;17.50;15.50;;;;;18.80;50.41;102171.06;5056536;28;45308;-76
2023/05/26 08:28:42;;;;;;;;;16.50;16.00;;;;;18.81;50.44;102164.66;5056580;28;45271;-75
2023/05/26 08:31:08;;;;;;;;;17.00;15.25;;;;;18.87;49.88;102168.88;5052738;28;45397;-76
2023/05/26 08:33:33;;;;;;;;;13.50;13.50;;;;;18.95;50.00;102171.16;5076708;28;45291;-75
2023/05/26 08:35:58;;;;;;;;;18.75;16.75;;;;;18.97;50.11;102170.09;5058577;28;45368;-76
2023/05/26 08:38:24;;;;;;;;;21.50;15.00;;;;;19.03;50.18;102171.59;5076505;27;45307;-75
2023/05/26 08:40:55;;;;;;;;;16.50;15.25;;;;;19.03;49.04;102161.59;5076335;28;45249;-77
2023/05/26 08:43:28;;;;;;;;;16.25;12.50;;;;;19.16;49.40;102169.88;5076453;28;45296;-76
2023/05/26 08:45:56;;;;;;;;;16.75;13.25;;;;;19.19;49.57;102172.44;5076874;28;45488;-76
2023/05/26 08:48:22;;;;;;;;;15.25;15.25;;;;;19.25;49.35;102169.34;5076810;28;45297;-78
2023/05/26 08:50:53;;;;;;;;;17.50;15.25;;;;;19.25;48.88;102158.47;5058436;28;46217;-77
2023/05/26 08:53:20;;;;;;;;;18.00;18.00;;;;;19.28;48.56;102167.34;5069257;27;45394;-77
2023/05/26 08:55:45;;;;;;;;;15.00;15.00;;;;;19.34;48.60;102165.19;5056426;28;45273;-77
2023/05/26 08:58:12;;;;;;;;;15.00;14.00;;;;;19.28;48.83;102147.41;5056280;28;45326;-77
2023/05/26 09:00:39;;;;;;;;;17.25;13.25;;;;;19.34;48.64;102162.47;5054959;28;45366;-78
2023/05/26 09:03:04;;;;;;;;;15.00;12.25;;;;;19.42;49.05;102162.88;5056432;28;45290;-76
2023/05/26 09:05:30;;;;;;;;;17.00;14.50;;;;;19.47;48.89;102158.97;5037694;28;45292;-79
2023/05/26 09:07:55;;;;;;;;;15.00;15.00;;;;;19.51;48.08;102159.66;5061874;27;45281;-79
2023/05/26 09:10:25;;;;;;;;;16.00;15.25;;;;;19.46;48.04;102154.47;5078682;27;46081;-77
2023/05/26 09:13:05;;;;;;;;;18.00;16.50;;;;;19.56;48.39;102166.56;5069422;28;45273;-77
2023/05/26 09:15:31;;;;;;;;;19.50;16.25;;;;;19.62;48.27;102168.91;5059058;28;45434;-77
2023/05/26 09:18:02;;;;;;;;;13.25;13.25;;;;;19.61;47.80;102169.88;5069279;28;45635;-76
2023/05/26 09:20:28;;;;;;;;;18.25;15.25;;;;;19.43;47.90;102140.16;5076278;28;46048;-82
2023/05/26 09:22:57;;;;;;;;;14.50;13.75;;;;;19.68;48.08;102174.94;5057331;28;45380;-83
2023/05/26 09:25:27;;;;;;;;;12.75;12.75;;;;;19.70;48.13;102175.72;5075181;28;45358;-72
2023/05/26 09:28:00;;;;;;;;;16.75;14.50;;;;;19.61;47.48;102171.72;5060552;28;45566;-80
2023/05/26 09:30:35;;;;;;;;;13.00;12.00;;;;;19.62;47.75;102168.03;5057559;27;45649;-74
2023/05/26 09:33:00;;;;;;;;;16.00;12.50;;;;;19.68;47.98;102175.81;5067821;27;45240;-75
2023/05/26 09:35:26;;;;;;;;;17.25;13.00;;;;;19.69;47.60;102174.84;5075765;27;45546;-74
2023/05/26 09:37:53;;;;;;;;;16.00;13.00;;;;;19.74;47.56;102164.56;5065651;27;45265;-75
2023/05/26 09:40:20;;;;;;;;;17.50;16.75;;;;;19.77;47.53;102164.38;5058190;28;45669;-78
2023/05/26 09:42:47;;;;;;;;;14.25;13.75;;;;;19.75;47.72;102160.84;5055056;28;45411;-73
2023/05/26 09:45:13;;;;;;;;;20.00;10.50;;;;;19.85;47.92;102172.94;5055335;28;45587;-74
2023/05/26 09:47:38;;;;;;;;;15.25;13.50;;;;;19.87;47.89;102164.69;5072855;27;45395;-71
2023/05/26 09:50:05;;;;;;;;;15.75;14.50;;;;;19.95;47.99;102165.06;5074303;28;45549;-74
2023/05/26 09:52:33;;;;;;;;;15.00;12.25;;;;;19.97;47.62;102169.47;5073515;28;45303;-75
2023/05/26 09:54:58;;;;;;;;;12.00;12.00;;;;;20.01;47.41;102176.44;5074668;28;45610;-73
2023/05/26 09:57:25;;;;;;;;;11.25;9.00;;;;;20.04;47.42;102164.50;5075082;28;45342;-74
2023/05/26 09:59:54;;;;;;;;;17.50;16.25;;;;;20.07;47.48;102174.34;5075129;28;45357;-74
2023/05/26 10:02:24;;;;;;;;;12.50;12.50;;;;;20.11;47.13;102168.59;5074876;28;45360;-76
2023/05/26 10:04:51;;;;;;;;;12.75;11.50;;;;;20.15;47.18;102167.44;5066105;28;45261;-74
2023/05/26 10:07:20;;;;;;;;;16.25;12.75;;;;;20.18;46.53;102169.94;5074467;28;45406;-73
2023/05/26 10:09:57;;;;;;;;;15.50;12.50;;;;;20.12;47.08;102150.41;5065727;28;45614;-74
2023/05/26 10:12:27;;;;;;;;;17.00;15.00;;;;;20.23;46.74;102166.94;5060790;28;45426;-74
2023/05/26 10:14:53;;;;;;;;;18.75;14.25;;;;;20.19;46.68;102159.91;5048281;28;45317;-74
2023/05/26 10:17:19;;;;;;;;;15.25;13.25;;;;;20.20;46.76;102153.50;5073337;28;45299;-73
2023/05/26 10:19:45;;;;;;;;;12.75;12.50;;;;;20.29;46.44;102155.66;5070837;28;45414;-74
2023/05/26 10:22:18;;;;;;;;;16.50;14.00;;;;;20.32;46.81;102159.06;5074547;28;45295;-73
2023/05/26 10:24:50;;;;;;;;;14.50;14.25;;;;;20.35;46.56;102149.81;5055022;28;45344;-73
2023/05/26 10:27:33;;;;;;;;;12.25;12.25;;;;;20.42;46.56;102161.19;5074768;28;45298;-69
2023/05/26 10:30:10;;;;;;;;;11.25;11.00;;;;;20.49;46.96;102148.94;5074219;28;46323;-75
2023/05/26 10:32:41;;;;;;;;;14.75;14.25;;;;;20.53;46.65;102153.22;5074199;28;45325;-73
2023/05/26 10:35:24;;;;;;;;;13.75;12.75;;;;;20.54;47.08;102146.78;5074487;28;45305;-74
2023/05/26 10:37:54;;;;;;;;;13.50;12.50;;;;;20.56;46.29;102142.13;5074611;28;45378;-73
2023/05/26 10:40:31;;;;;;;;;18.25;15.75;;;;;20.62;46.13;102150.75;5074782;28;46144;-75
2023/05/26 10:43:10;;;;;;;;;14.00;12.00;;;;;20.61;46.25;102127.22;5074421;28;45362;-75
2023/05/26 10:45:43;;;;;;;;;16.25;15.50;;;;;20.73;46.28;102150.94;5074829;28;45322;-73
2023/05/26 10:48:10;;;;;;;;;18.25;17.00;;;;;20.74;46.22;102130.88;5074960;28;45556;-73
2023/05/26 10:50:58;;;;;;;;;12.25;12.25;;;;;20.93;46.80;102135.97;5074240;28;47139;-73
2023/05/26 10:53:25;;;;;;;;;19.50;13.25;;;;;20.99;45.64;102134.69;5016568;28;45490;-72
2023/05/26 10:55:55;;;;;;;;;20.00;13.75;;;;;21.05;45.59;102134.25;5054228;28;45359;-73
2023/05/26 10:58:26;;;;;;;;;19.50;15.75;;;;;21.12;45.62;102130.13;5053133;28;45514;-71
2023/05/26 11:00:59;;;;;;;;;20.00;14.00;;;;;21.11;45.43;102121.09;5040337;28;48204;-76
2023/05/26 11:03:40;;;;;;;;;16.00;14.50;;;;;21.27;45.79;102122.78;5074866;28;45248;-72
2023/05/26 11:06:07;;;;;;;;;18.75;14.50;;;;;21.33;45.70;102119.66;5064190;28;45724;-74
2023/05/26 11:08:36;;;;;;;;;19.00;16.25;;;;;21.35;45.32;102115.81;5069721;28;45602;-76
2023/05/26 11:11:03;;;;;;;;;20.75;14.75;;;;;21.42;45.09;102121.75;5054142;28;46084;-74
2023/05/26 11:13:46;;;;;;;;;14.25;14.25;;;;;21.46;44.69;102113.22;5065844;28;45395;-74
2023/05/26 11:16:25;;;;;;;;;13.00;12.50;;;;;21.55;44.68;102127.22;5070238;28;45497;-72
2023/05/26 11:18:57;;;;;;;;;13.50;10.50;;;;;21.58;44.40;102106.03;5061073;28;45308;-75
2023/05/26 11:21:25;;;;;;;;;14.00;12.25;;;;;21.64;43.85;102107.47;5074304;28;46261;-75
2023/05/26 11:23:58;;;;;;;;;16.25;14.25;;;;;21.80;44.85;102119.03;5075994;28;45347;-78
2023/05/26 11:26:26;;;;;;;;;20.50;13.50;;;;;21.92;44.10;102109.97;5075132;28;45499;-75
2023/05/26 11:28:52;;;;;;;;;13.00;12.75;;;;;22.00;43.74;102117.66;5057418;28;45236;-77
2023/05/26 11:31:19;;;;;;;;;16.00;15.50;;;;;22.02;44.01;102099.31;5057068;28;45547;-75
2023/05/26 11:33:46;;;;;;;;;15.75;14.25;;;;;22.16;43.85;102110.09;5057419;28;45407;-78
2023/05/26 11:36:14;;;;;;;;;18.25;13.75;;;;;22.26;43.45;102113.91;5057404;28;45369;-76
2023/05/26 11:38:41;;;;;;;;;15.50;14.75;;;;;22.35;43.13;102112.34;5039510;28;45398;-77
2023/05/26 11:41:08;;;;;;;;;16.50;15.25;;;;;22.41;43.31;102106.44;5077735;28;45497;-74
2023/05/26 11:43:35;;;;;;;;;13.25;13.25;;;;;22.49;42.75;102106.72;5077191;28;45724;-77
2023/05/26 11:46:13;;;;;;;;;16.50;14.00;;;;;22.54;42.86;102099.06;5077573;28;45337;-76
2023/05/26 11:48:40;;;;;;;;;16.75;13.50;;;;;22.55;43.04;102089.84;5059280;28;46082;-76
2023/05/26 11:51:19;;;;;;;;;9.00;9.00;;;;;22.67;43.17;102108.09;5058795;28;46921;-75
2023/05/26 11:53:46;;;;;;;;;13.00;12.25;;;;;22.74;43.01;102098.47;5046178;27;45697;-75
2023/05/26 11:56:14;;;;;;;;;13.75;13.75;;;;;22.81;42.73;102094.28;5072490;27;45363;-75
2023/05/26 11:59:08;;;;;;;;;14.25;11.25;;;;;22.99;42.36;102084.66;5076817;27;45313;-76
2023/05/26 12:01:35;;;;;;;;;13.50;13.50;;;;;23.11;42.35;102084.72;5066690;27;46136;-76
2023/05/26 12:04:02;;;;;;;;;16.50;16.00;;;;;23.18;42.25;102083.25;5076937;27;45340;-77
2023/05/26 12:06:29;;;;;;;;;17.75;16.00;;;;;23.28;41.71;102076.06;5068744;28;45349;-76
2023/05/26 12:09:06;;;;;;;;;16.25;12.75;;;;;23.40;41.37;102080.56;5061395;28;45481;-77
2023/05/26 12:11:33;;;;;;;;;14.00;14.00;;;;;23.51;41.42;102079.75;5076043;28;45471;-76
2023/05/26 12:14:10;;;;;;;;;17.50;15.75;;;;;23.58;41.56;102075.53;5059590;27;45479;-75
2023/05/26 12:16:46;;;;;;;;;18.50;15.75;;;;;23.64;41.57;102065.00;5069603;28;45337;-75
2023/05/26 12:19:13;;;;;;;;;17.50;14.75;;;;;23.79;40.76;102071.09;5074328;27;45572;-78
2023/05/26 12:21:47;;;;;;;;;13.00;13.00;;;;;23.79;40.47;102060.13;5058307;28;48136;-77
2023/05/26 12:24:13;;;;;;;;;12.00;12.00;;;;;24.00;40.70;102069.34;5077024;28;45264;-76
2023/05/26 12:26:39;;;;;;;;;15.00;14.75;;;;;24.03;40.04;102052.66;5076820;28;45463;-75
2023/05/26 12:29:16;;;;;;;;;13.75;12.50;;;;;24.18;39.85;102050.53;5068254;28;45322;-75
2023/05/26 12:31:52;;;;;;;;;16.50;15.00;;;;;24.33;39.97;102057.50;5069570;28;45571;-75
2023/05/26 12:34:27;;;;;;;;;17.00;14.50;;;;;24.44;39.95;102051.13;5056190;28;45386;-76
2023/05/26 12:36:52;;;;;;;;;14.00;12.25;;;;;24.69;39.83;102069.13;5056507;28;45318;-75
2023/05/26 12:39:19;;;;;;;;;17.50;12.50;;;;;24.84;39.40;102068.69;5056036;28;45353;-75
2023/05/26 12:41:45;;;;;;;;;15.75;13.25;;;;;25.01;39.32;102072.78;5056135;28;45276;-75
2023/05/26 12:44:12;;;;;;;;;12.75;11.00;;;;;25.10;38.82;102072.00;5056002;28;45383;-76
2023/05/26 12:46:42;;;;;;;;;14.50;12.25;;;;;25.15;37.44;102058.75;5057906;28;45495;-76
2023/05/26 12:49:09;;;;;;;;;13.00;12.00;;;;;25.21;37.35;102052.72;5076349;28;45477;-76
2023/05/26 12:51:37;;;;;;;;;14.25;9.25;;;;;25.34;37.15;102048.94;5076291;28;46373;-75
2023/05/26 12:54:03;;;;;;;;;15.00;14.50;;;;;25.47;37.45;102049.56;5072719;28;45295;-76
2023/05/26 12:56:28;;;;;;;;;12.75;11.75;;;;;25.59;36.90;102054.91;5066150;28;45291;-77
2023/05/26 12:58:54;;;;;;;;;16.75;13.75;;;;;25.57;36.41;102029.41;5078410;27;45515;-77
2023/05/26 13:01:21;;;;;;;;;19.00;14.25;;;;;25.86;36.65;102042.47;5076606;28;45326;-77
2023/05/26 13:03:47;;;;;;;;;17.00;10.00;;;;;25.95;36.58;102044.34;5077217;28;45421;-75
2023/05/26 13:06:13;;;;;;;;;12.50;12.00;;;;;26.03;36.02;102035.44;5047578;28;45483;-74
2023/05/26 13:08:39;;;;;;;;;14.25;10.75;;;;;26.24;36.46;102037.09;5055102;28;46089;-76
2023/05/26 13:11:05;;;;;;;;;13.00;9.75;;;;;26.42;35.87;102031.81;5076343;28;45461;-76
2023/05/26 13:13:32;;;;;;;;;10.75;10.75;;;;;26.51;35.38;102022.72;5055139;28;45321;-76
2023/05/26 13:15:57;;;;;;;;;12.00;11.50;;;;;26.62;35.45;102028.09;5072943;28;45415;-76
2023/05/26 13:18:22;;;;;;;;;13.50;10.25;;;;;26.80;35.12;102030.09;5075457;28;45283;-75
2023/05/26 13:20:48;;;;;;;;;13.00;11.00;;;;;26.92;34.79;102031.75;5075856;28;45395;-74
2023/05/26 13:23:14;;;;;;;;;14.25;9.75;;;;;27.06;34.20;102028.53;5075787;28;45158;-71
2023/05/26 13:25:39;;;;;;;;;7.50;7.50;;;;;27.20;34.14;102025.34;5076363;28;45410;-76
2023/05/26 13:28:05;;;;;;;;;11.50;10.25;;;;;27.42;33.53;102032.41;5071957;28;45520;-74
2023/05/26 13:30:30;;;;;;;;;10.75;8.00;;;;;27.50;33.79;102029.75;5085011;27;46758;-74
2023/05/26 13:32:57;;;;;;;;;11.25;9.00;;;;;27.65;33.68;102032.94;5067316;28;45419;-74
2023/05/26 13:35:23;;;;;;;;;14.50;9.50;;;;;27.78;32.58;102020.56;5066420;28;45398;-75
2023/05/26 13:37:50;;;;;;;;;12.25;11.25;;;;;27.77;33.38;102023.47;5075332;28;45458;-74
2023/05/26 13:40:19;;;;;;;;;9.25;8.25;;;;;27.82;32.85;102021.13;5075627;28;46248;-74
2023/05/26 13:42:46;;;;;;;;;11.50;11.50;;;;;27.93;33.10;102022.81;5071670;28;45430;-74
2023/05/26 13:45:13;;;;;;;;;10.75;8.50;;;;;28.10;33.57;102027.53;5075852;28;45382;-76
2023/05/26 13:47:38;;;;;;;;;10.75;8.75;;;;;28.19;32.10;102012.84;5074168;28;45645;-76
2023/05/26 13:50:04;;;;;;;;;10.50;10.00;;;;;28.24;32.21;102013.28;5057207;28;45979;-76
2023/05/26 13:52:31;;;;;;;;;11.50;11.25;;;;;28.34;31.61;101996.63;5075010;28;45435;-75
2023/05/26 13:54:57;;;;;;;;;13.25;8.25;;;;;28.46;31.83;101996.28;5075799;28;45359;-75
2023/05/26 13:57:23;;;;;;;;;14.50;11.25;;;;;28.66;31.46;102013.56;5075220;28;45473;-74
2023/05/26 13:59:48;;;;;;;;;10.50;9.25;;;;;28.71;31.98;102018.59;5055838;28;47568;-74
2023/05/26 14:02:14;;;;;;;;;15.00;10.00;;;;;28.90;31.28;102027.63;5074948;28;45407;-74
2023/05/26 14:04:40;;;;;;;;;11.25;10.00;;;;;29.23;31.21;102009.44;5075290;28;45536;-74
2023/05/26 14:07:06;;;;;;;;;13.50;10.25;;;;;29.66;30.36;102013.19;5074934;28;45505;-75
2023/05/26 14:09:32;;;;;;;;;12.50;10.00;;;;;29.95;29.28;102002.66;5075316;28;45385;-75
2023/05/26 14:11:57;;;;;;;;;10.75;7.75;;;;;30.16;29.32;101998.59;5072985;28;45487;-75
2023/05/26 14:14:22;;;;;;;;;9.75;8.50;;;;;30.51;28.50;101997.47;5066062;28;45356;-77
2023/05/26 14:16:48;;;;;;;;;8.50;8.50;;;;;30.85;27.33;102001.00;5064271;28;45546;-76
2023/05/26 14:19:14;;;;;;;;;12.75;8.25;;;;;31.04;26.43;101992.38;5063915;28;47322;-75
2023/05/26 14:21:41;;;;;;;;;10.00;8.00;;;;;31.32;27.06;102012.25;5072357;28;46375;-74
2023/05/26 14:24:07;;;;;;;;;10.00;8.75;;;;;31.57;27.07;102000.09;5051162;28;45431;-72
2023/05/26 14:26:32;;;;;;;;;10.25;8.75;;;;;31.86;26.45;102002.28;5072282;28;45336;-73
2023/05/26 14:28:58;;;;;;;;;8.25;8.25;;;;;32.09;27.04;101998.72;5067211;28;46128;-74
2023/05/26 14:31:23;;;;;;;;;9.00;8.00;;;;;32.48;26.50;101990.41;5049527;28;45264;-74
2023/05/26 14:33:49;;;;;;;;;12.75;8.75;;;;;32.69;26.01;101988.69;5054599;28;45238;-74
2023/05/26 14:36:14;;;;;;;;;9.25;9.25;;;;;32.82;25.39;101979.75;5071981;28;45499;-74
2023/05/26 14:38:45;;;;;;;;;11.75;9.75;;;;;32.98;25.24;101984.31;5074068;28;45278;-74
2023/05/26 14:41:14;;;;;;;;;9.75;9.75;;;;;33.06;25.36;101982.31;5074027;28;45487;-75
2023/05/26 14:43:39;;;;;;;;;7.25;6.00;;;;;33.20;25.14;101991.72;5075099;28;45321;-74
2023/05/26 14:46:05;;;;;;;;;8.50;8.50;;;;;33.32;25.08;101992.19;5074282;28;45863;-74
2023/05/26 14:48:31;;;;;;;;;11.00;8.75;;;;;33.28;24.80;101988.03;5074660;28;46142;-75
2023/05/26 14:50:56;;;;;;;;;10.00;9.00;;;;;33.26;25.17;101984.59;5074385;28;45330;-74
2023/05/26 14:53:22;;;;;;;;;10.75;8.75;;;;;33.30;24.81;101994.28;5044216;28;45336;-76
2023/05/26 14:55:47;;;;;;;;;10.25;9.25;;;;;33.35;25.10;101997.34;5073144;28;45386;-76
2023/05/26 14:58:13;;;;;;;;;11.00;8.75;;;;;33.36;24.26;101983.25;5056029;28;45408;-77
2023/05/26 15:00:39;;;;;;;;;10.50;7.75;;;;;33.42;24.84;101982.53;5064318;28;45513;-76
2023/05/26 15:03:06;;;;;;;;;7.75;7.00;;;;;33.56;24.68;101977.16;5078299;28;45392;-74
2023/05/26 15:05:31;;;;;;;;;8.50;8.00;;;;;33.70;23.90;101974.34;5078075;28;45457;-78
2023/05/26 15:07:57;;;;;;;;;10.50;8.00;;;;;33.53;24.31;101971.94;5077680;28;45412;-73
2023/05/26 15:10:23;;;;;;;;;11.00;9.25;;;;;33.43;24.46;101967.53;5078053;28;45322;-76
2023/05/26 15:12:48;;;;;;;;;8.75;7.25;;;;;33.50;24.29;101966.78;5067012;28;45358;-75
2023/05/26 15:15:16;;;;;;;;;10.75;8.25;;;;;33.30;24.06;101975.69;5060669;28;45303;-75
2023/05/26 15:17:41;;;;;;;;;7.25;6.00;;;;;33.20;23.54;101976.97;5061309;28;45320;-76
2023/05/26 15:20:07;;;;;;;;;9.75;6.75;;;;;33.06;23.70;101970.34;5066998;28;45551;-73
2023/05/26 15:22:32;;;;;;;;;9.00;9.00;;;;;32.93;24.59;101972.88;5046119;28;45368;-74
2023/05/26 15:24:58;;;;;;;;;9.00;7.25;;;;;32.82;25.10;101957.53;5058997;28;47205;-73
2023/05/26 15:27:23;;;;;;;;;8.50;8.50;;;;;32.81;24.93;101960.50;5077633;28;46448;-75
2023/05/26 15:29:49;;;;;;;;;9.00;7.00;;;;;32.68;25.47;101961.94;5077874;28;45306;-75
2023/05/26 15:32:14;;;;;;;;;9.25;9.25;;;;;32.60;25.50;101966.69;5077661;28;45563;-75
2023/05/26 15:34:40;;;;;;;;;10.75;8.50;;;;;32.64;25.59;101948.63;5077572;28;45540;-78
2023/05/26 15:37:05;;;;;;;;;10.50;8.50;;;;;32.74;25.92;101953.97;5077814;28;46032;-73
2023/05/26 15:39:32;;;;;;;;;18.00;9.50;;;;;32.74;26.19;101957.59;5077611;28;45378;-76
2023/05/26 15:41:58;;;;;;;;;7.50;6.75;;;;;32.74;25.98;101953.97;5071585;28;45466;-74
2023/05/26 15:44:23;;;;;;;;;7.25;6.50;;;;;32.59;26.31;101949.16;5077290;28;45336;-76